Ana Sayfa
METAR-TAF:

METAR-TAF

Havaalanları :

Manado, Endonezya

Enlem: 01-32N, Boylam: 124-55E, yükseklik: 80 m

Güncel hava durumu gözlemi

Rapor saat 22:00 UTC de 18 dakika önce yapıldı.
Rüzgar güney/güneybatıdan 9 kt
Sıcaklık 27°C
Nem 66%
Basınç 1008 hPa
Görüş mesafesi 10 km veya daha fazla
2300 ft yükseklikte az bulutlu

METAR: WAMM 162200Z 20009KT 9999 FEW023 27/20 Q1008 NOSIG

Saat: 05:18 (22:18 UTC)

Tahmin

Rapor saat 17:00 UTC de 5 saat ve 18 dakika önce yapıldı.
Ayın 16'si saat 18 UTC'den ayın 17'si saat 24 UTC'ye kadar geçerli Tahmin
Rüzgar güneydan 8 kt
Görüş mesafesi 10 km veya daha fazla
2300 ft yükseklikte az bulutlu
Dönüşüyor
ayın 16'si saat 23 UTC'den ayın 17'si saat 01 UTC'ye kadar
Rüzgar güneydan 12 kt ve 22 kt'a kadar ani rüzgarlar
Dönüşüyor
ayın 17'si saat 11 UTC'den ayın 17'si saat 12 UTC'ye kadar
Rüzgar güneydan 10 kt

TAF: WAMM 161700Z 1618/1724 17008KT 9999 FEW023 BECMG 1623/1701 18012G22KT BECMG 1711/1712 17010KT

4.000'den fazla havaalanı için hava durumu gözlemleri ve tahminleri (METAR ve TAF raporları).

Kullanılabilir istasyonlar harita üzerinde sarı ve kırmızı noktalarla gösterilir.

İstasyonun adını görmek için fareyi noktanın üzerinde gezdirin.

Sonrasında hava gözlem ve tahminlerini görmek için tıklayın.

Haritayı değiştirmek için: yaklaştırmak için siyah artı işaretli yeşil düğmeye ve uzaklaştırmak için de eksi işaretli düğmeye hızla tıklayın; bitişik haritalar için yeşil okları kullanın.


METAR-TAF: